createdAt,value
2024-03-05T00:00:29.162Z,9.51
2024-03-05T00:03:24.685Z,9.44
2024-03-05T00:06:20.305Z,9.34
2024-03-05T00:09:15.810Z,9.31
2024-03-05T00:12:12.368Z,9.11
2024-03-05T00:15:08.932Z,8.52
2024-03-05T00:18:05.612Z,8.12
2024-03-05T00:21:01.067Z,8.67
2024-03-05T00:23:56.610Z,10.05
2024-03-05T00:26:54.149Z,10.12
2024-03-05T00:29:49.710Z,10.02
2024-03-05T00:32:45.308Z,9.74
2024-03-05T00:35:42.849Z,9.57
2024-03-05T00:38:39.379Z,9.8
2024-03-05T00:41:34.978Z,9.25
2024-03-05T00:44:31.557Z,8.71
2024-03-05T00:47:27.074Z,8.53
2024-03-05T00:50:23.654Z,8.66
2024-03-05T00:53:19.203Z,8.69
2024-03-05T00:56:14.767Z,8.38
2024-03-05T00:59:12.342Z,8.39
2024-03-05T01:02:07.954Z,8.4
2024-03-05T01:05:07.459Z,8.45
2024-03-05T01:08:04.055Z,8.58
2024-03-05T01:11:00.968Z,8.73
2024-03-05T01:13:56.222Z,8.79
2024-03-05T01:16:52.770Z,8.59
2024-03-05T01:19:48.275Z,8.72
2024-03-05T01:22:43.877Z,8.69
2024-03-05T01:25:42.409Z,8.79
2024-03-05T01:28:39.959Z,8.59
2024-03-05T01:31:35.513Z,8.58
2024-03-05T01:37:37.567Z,7.78
2024-03-05T01:40:33.088Z,7.84
2024-03-05T01:43:31.705Z,7.53
2024-03-05T01:46:29.273Z,7.83
2024-03-05T01:49:25.875Z,8.05
2024-03-05T01:52:23.384Z,8.18
2024-03-05T01:55:19.910Z,7.85
2024-03-05T01:58:18.515Z,7.85
2024-03-05T02:01:16.147Z,7.81
2024-03-05T02:04:15.583Z,7.71
2024-03-05T02:07:14.231Z,7.46
2024-03-05T02:10:10.666Z,7.82
2024-03-05T02:13:10.250Z,7.55
2024-03-05T02:16:06.809Z,7.15
2024-03-05T02:19:04.365Z,7.15
2024-03-05T02:22:02.950Z,7.21
2024-03-05T02:24:59.463Z,7.3
2024-03-05T02:27:56.035Z,7.21
2024-03-05T02:30:52.564Z,6.91
2024-03-05T02:33:49.106Z,6.55
2024-03-05T02:36:44.685Z,6.83
2024-03-05T02:39:40.259Z,6.8
2024-03-05T02:42:36.793Z,7.62
2024-03-05T02:45:32.382Z,8.63
2024-03-05T02:48:28.025Z,8.92
2024-03-05T02:51:24.564Z,9.17
2024-03-05T02:54:20.055Z,9.12
2024-03-05T02:57:15.605Z,9.18
2024-03-05T03:00:20.647Z,9.08
2024-03-05T03:03:17.720Z,8.72
2024-03-05T03:06:16.292Z,9.07
2024-03-05T03:09:12.807Z,8.92
2024-03-05T03:12:14.420Z,9.47
2024-03-05T03:15:10.958Z,9.22
2024-03-05T03:18:07.600Z,9.34
2024-03-05T03:21:06.047Z,9.2
2024-03-05T03:24:01.599Z,9.04
2024-03-05T03:26:58.157Z,9.18
2024-03-05T03:29:53.815Z,9.27
2024-03-05T03:32:50.336Z,8.95
2024-03-05T03:35:46.840Z,8.94
2024-03-05T03:38:43.403Z,8.74
2024-03-05T03:41:40.951Z,8.68
2024-03-05T03:44:36.526Z,8.97
2024-03-05T03:47:32.086Z,9.01
2024-03-05T03:50:27.622Z,8.55
2024-03-05T03:53:23.209Z,9.1
2024-03-05T03:56:18.760Z,9.19
2024-03-05T03:59:15.331Z,9.37
2024-03-05T04:02:10.960Z,9.5
2024-03-05T04:05:10.410Z,9.43
2024-03-05T04:08:07.054Z,9.01
2024-03-05T04:11:04.624Z,8.07
2024-03-05T04:14:04.324Z,8.61
2024-03-05T04:17:01.667Z,8.84
2024-03-05T04:19:57.559Z,7.57
2024-03-05T04:22:54.841Z,7.7
2024-03-05T04:25:59.440Z,8.44
2024-03-05T04:29:02.032Z,8.03
2024-03-05T04:35:11.962Z,7.27
2024-03-05T04:38:08.480Z,6.33
2024-03-05T04:41:06.126Z,7.6
2024-03-05T04:44:02.639Z,7.94
2024-03-05T04:46:59.179Z,7.13
2024-03-05T04:49:55.735Z,7.3
2024-03-05T04:52:53.308Z,8.26
2024-03-05T04:55:49.829Z,7.66
2024-03-05T04:58:46.416Z,7.53
2024-03-05T05:01:41.967Z,7.09
2024-03-05T05:04:38.579Z,7.03
2024-03-05T05:07:35.126Z,7.09
2024-03-05T05:10:32.638Z,7.31
2024-03-05T05:13:28.259Z,7.25
2024-03-05T05:16:27.878Z,7.19
2024-03-05T05:19:26.406Z,7.12
2024-03-05T05:22:22.958Z,8.01
2024-03-05T05:25:20.480Z,8.26
2024-03-05T05:28:16.001Z,9.08
2024-03-05T05:31:24.529Z,8.88
2024-03-05T05:34:22.057Z,8.61
2024-03-05T05:37:18.600Z,8.52
2024-03-05T05:40:20.354Z,8.97
2024-03-05T05:43:20.772Z,7.73
2024-03-05T05:46:24.269Z,7.39
2024-03-05T05:49:22.012Z,8.18
2024-03-05T05:52:18.384Z,8.19
2024-03-05T05:55:17.100Z,7.97
2024-03-05T05:58:14.470Z,8.18
2024-03-05T06:01:15.429Z,7.99
2024-03-05T06:04:12.627Z,8.65
2024-03-05T06:07:11.849Z,8.25
2024-03-05T06:10:08.750Z,8.08
2024-03-05T06:13:04.238Z,8.4
2024-03-05T06:16:00.820Z,8.2
2024-03-05T06:18:57.324Z,9.02
2024-03-05T06:21:54.030Z,9
2024-03-05T06:24:49.509Z,9.29
2024-03-05T06:27:47.111Z,9.78
2024-03-05T06:30:49.606Z,9.47
2024-03-05T06:33:45.174Z,9.13
2024-03-05T06:36:42.723Z,10.13
2024-03-05T06:39:42.262Z,10.54
2024-03-05T06:42:41.832Z,10.71
2024-03-05T06:45:43.363Z,11.4
2024-03-05T06:48:47.916Z,11.98
2024-03-05T06:52:16.406Z,12.34
2024-03-05T06:55:48.406Z,12.8
2024-03-05T06:58:45.466Z,12.77
2024-03-05T07:01:41.074Z,12.97
2024-03-05T07:04:40.527Z,12.85
2024-03-05T07:07:36.100Z,12.61
2024-03-05T07:10:35.757Z,12.51
2024-03-05T07:13:32.307Z,12.36
2024-03-05T07:16:32.743Z,12.68
2024-03-05T07:19:30.335Z,12.82
2024-03-05T07:22:28.841Z,13.15
2024-03-05T07:25:25.454Z,13.2
2024-03-05T07:28:21.954Z,13.41
2024-03-05T07:31:20.188Z,13.19
2024-03-05T07:34:16.079Z,13.45
2024-03-05T07:37:13.610Z,13.7
2024-03-05T07:40:21.200Z,13.55
2024-03-05T07:43:20.717Z,13.49
2024-03-05T07:46:18.370Z,13.54
2024-03-05T07:49:15.057Z,13.42
2024-03-05T07:52:10.394Z,13.58
2024-03-05T07:55:06.920Z,13.79
2024-03-05T07:58:04.506Z,13.82
2024-03-05T08:01:01.111Z,14.04
2024-03-05T08:03:57.629Z,13.96
2024-03-05T08:06:55.663Z,14.16
2024-03-05T08:09:54.741Z,14.57
2024-03-05T08:12:55.302Z,14.49
2024-03-05T08:15:50.825Z,14.79
2024-03-05T08:18:47.379Z,15.12
2024-03-05T08:21:43.958Z,15.05
2024-03-05T08:24:43.647Z,14.95
2024-03-05T08:27:43.087Z,14.77
2024-03-05T08:30:43.908Z,14.87
2024-03-05T08:33:39.174Z,14.84
2024-03-05T08:39:34.292Z,14.93
2024-03-05T08:42:31.852Z,14.82
2024-03-05T08:45:27.428Z,15.04
2024-03-05T08:48:23.976Z,15.29
2024-03-05T08:51:19.506Z,15.45
2024-03-05T08:54:17.818Z,15.43
2024-03-05T08:57:14.562Z,15.66
2024-03-05T09:00:28.214Z,15.99
2024-03-05T09:03:29.076Z,15.94
2024-03-05T09:06:24.246Z,16.07
2024-03-05T09:09:22.768Z,15.88
2024-03-05T09:12:19.375Z,15.92
2024-03-05T09:15:16.919Z,16.14
2024-03-05T09:18:15.183Z,16.27
2024-03-05T09:21:13.074Z,16.15
2024-03-05T09:24:08.597Z,16.4
2024-03-05T09:27:04.173Z,16.42
2024-03-05T09:30:01.742Z,16.67
2024-03-05T09:32:59.296Z,17.05
2024-03-05T09:35:58.834Z,17.2
2024-03-05T09:38:56.382Z,17.16
2024-03-05T09:41:53.933Z,17.24
2024-03-05T09:48:10.120Z,17.24
2024-03-05T09:51:11.245Z,17.52
2024-03-05T09:54:12.133Z,17.25
2024-03-05T09:57:09.654Z,17.49
2024-03-05T10:00:16.431Z,17.56
2024-03-05T10:03:11.776Z,17.58
2024-03-05T10:06:12.329Z,17.84
2024-03-05T10:09:10.864Z,17.17
2024-03-05T10:12:14.408Z,17.92
2024-03-05T10:15:12.961Z,18.05
2024-03-05T10:18:14.523Z,18.38
2024-03-05T10:21:20.201Z,18.36
2024-03-05T10:24:28.581Z,18.85
2024-03-05T10:27:29.119Z,19.35
2024-03-05T10:30:25.675Z,19.41
2024-03-05T10:33:28.223Z,19.58
2024-03-05T10:36:27.764Z,19.91
2024-03-05T10:39:29.183Z,20.12
2024-03-05T10:42:33.845Z,20.31
2024-03-05T10:45:33.433Z,20.64
2024-03-05T10:48:29.968Z,20.26
2024-03-05T10:51:31.513Z,20.7
2024-03-05T10:54:33.582Z,20.71
2024-03-05T10:57:30.597Z,21.24
2024-03-05T11:00:27.154Z,21.43
2024-03-05T11:03:29.714Z,21.28
2024-03-05T11:06:27.277Z,21.2
2024-03-05T11:09:24.845Z,21.53
2024-03-05T11:12:24.378Z,21.36
2024-03-05T11:15:22.966Z,21.68
2024-03-05T11:18:30.010Z,21.94
2024-03-05T11:21:27.370Z,22.05
2024-03-05T11:24:32.572Z,22.18
2024-03-05T11:27:35.080Z,23.03
2024-03-05T11:30:42.628Z,22.28
2024-03-05T11:33:41.195Z,22.43
2024-03-05T11:37:01.670Z,22.59
2024-03-05T11:40:11.344Z,22.7
2024-03-05T11:43:07.769Z,22.88
2024-03-05T11:46:35.269Z,22.4
2024-03-05T11:49:35.833Z,24.42
2024-03-05T11:52:32.384Z,21.17
2024-03-05T11:55:33.014Z,21.46
2024-03-05T11:58:29.482Z,22.1
2024-03-05T12:01:33.097Z,23.12
2024-03-05T12:04:32.571Z,23.04
2024-03-05T12:07:30.136Z,24.18
2024-03-05T12:10:32.886Z,24.71
2024-03-05T12:13:33.227Z,24.94
2024-03-05T12:16:39.831Z,24.71
2024-03-05T12:19:41.477Z,24.63
2024-03-05T12:22:49.900Z,25.09
2024-03-05T12:25:48.463Z,24.8
2024-03-05T12:28:43.971Z,25.21
2024-03-05T12:31:42.464Z,22.17
2024-03-05T12:34:41.052Z,23.98
2024-03-05T12:37:40.592Z,24.82
2024-03-05T12:40:38.211Z,24.02
2024-03-05T12:43:50.717Z,25.07
2024-03-05T12:46:51.295Z,24.2
2024-03-05T12:49:48.902Z,24.11
2024-03-05T12:53:00.316Z,25.36
2024-03-05T12:56:02.008Z,26.81
2024-03-05T12:58:59.454Z,26.55
2024-03-05T13:01:57.140Z,25.65
2024-03-05T13:04:57.020Z,24.87
2024-03-05T13:07:59.817Z,22.53
2024-03-05T13:10:56.752Z,22.83
2024-03-05T13:13:57.197Z,21.82
2024-03-05T13:16:53.883Z,22.23
2024-03-05T13:19:49.307Z,22.49
2024-03-05T13:22:45.886Z,22.27
2024-03-05T13:25:48.361Z,22.61
2024-03-05T13:28:47.978Z,22.52
2024-03-05T13:31:45.512Z,21.92
2024-03-05T13:34:45.158Z,20.39
2024-03-05T13:37:48.815Z,21.71
2024-03-05T13:40:46.160Z,23.84
2024-03-05T13:43:45.768Z,25.16
2024-03-05T13:46:44.253Z,26.1
2024-03-05T13:49:41.837Z,26.61
2024-03-05T13:52:43.790Z,26.85
2024-03-05T13:55:42.989Z,24.85
2024-03-05T13:58:38.472Z,24.14
2024-03-05T14:01:36.102Z,24.59
2024-03-05T14:04:37.134Z,24.2
2024-03-05T14:07:37.136Z,24.21
2024-03-05T14:10:34.689Z,22.71
2024-03-05T14:13:39.227Z,21.35
2024-03-05T14:16:39.829Z,21.66
2024-03-05T14:19:37.362Z,22.63
2024-03-05T14:22:33.660Z,23.34
2024-03-05T14:25:30.805Z,21.92
2024-03-05T14:28:27.009Z,20.53
2024-03-05T14:31:24.315Z,21.63
2024-03-05T14:34:22.175Z,22.88
2024-03-05T14:37:19.655Z,22.69
2024-03-05T14:40:19.233Z,21.97
2024-03-05T14:43:17.800Z,21.29
2024-03-05T14:46:14.278Z,21.95
2024-03-05T14:49:11.895Z,22.88
2024-03-05T14:52:07.435Z,21.55
2024-03-05T14:58:49.829Z,21.5
2024-03-05T15:04:46.950Z,20.24
2024-03-05T15:07:44.267Z,21.19
2024-03-05T15:10:44.863Z,21.32
2024-03-05T15:13:40.234Z,21.06
2024-03-05T15:16:38.784Z,20.85
2024-03-05T15:19:35.348Z,21.1
2024-03-05T15:22:30.896Z,20.79
2024-03-05T15:25:31.530Z,21.17
2024-03-05T15:28:30.062Z,21.88
2024-03-05T15:31:25.564Z,21.74
2024-03-05T15:34:22.199Z,21.54
2024-03-05T15:37:23.672Z,20.52
2024-03-05T15:40:21.863Z,20.55
2024-03-05T15:43:19.776Z,20.11
2024-03-05T15:46:16.340Z,19.43
2024-03-05T15:49:15.889Z,18.91
2024-03-05T15:52:14.474Z,18.42
2024-03-05T15:55:11.995Z,17.3
2024-03-05T15:58:41.673Z,17.13
2024-03-05T16:05:13.681Z,17.02
2024-03-05T16:13:07.116Z,16.67
2024-03-05T16:16:10.635Z,16.92
2024-03-05T16:19:14.124Z,16.88
2024-03-05T16:22:13.722Z,16.88
2024-03-05T16:25:18.538Z,16.81
2024-03-05T16:28:22.815Z,16.82
2024-03-05T16:31:22.309Z,16.58
2024-03-05T16:34:25.894Z,16.08
2024-03-05T16:37:29.292Z,15.41
2024-03-05T16:40:26.968Z,15.56
2024-03-05T16:43:24.518Z,15.49
2024-03-05T16:46:21.083Z,15.39
2024-03-05T16:49:16.678Z,15.21
2024-03-05T16:52:17.848Z,15.1
2024-03-05T16:55:23.778Z,15.14
2024-03-05T16:58:29.535Z,15.17
2024-03-05T17:01:29.885Z,15.26
2024-03-05T17:04:29.363Z,15.15
2024-03-05T17:07:33.943Z,15.27
2024-03-05T17:10:35.377Z,15.12
2024-03-05T17:13:43.034Z,14.9
2024-03-05T17:19:49.181Z,14.63
2024-03-05T17:22:48.669Z,14.81
2024-03-05T17:25:46.204Z,14.8
2024-03-05T17:28:48.776Z,14.73
2024-03-05T17:34:58.870Z,14.6
2024-03-05T17:38:02.435Z,14.55
2024-03-05T17:41:00.842Z,14.46
2024-03-05T17:43:58.437Z,14.45
2024-03-05T17:46:57.032Z,14.33
2024-03-05T17:49:58.578Z,14.06
2024-03-05T17:53:00.081Z,13.94
2024-03-05T17:56:04.564Z,14.21
2024-03-05T17:59:03.218Z,14.25
2024-03-05T18:02:04.598Z,13.49
2024-03-05T18:05:07.346Z,14.1
2024-03-05T18:08:03.957Z,14.38
2024-03-05T18:11:07.432Z,14.78
2024-03-05T18:14:15.293Z,14.37
2024-03-05T18:17:17.447Z,14.64
2024-03-05T18:20:18.027Z,14.61
2024-03-05T18:23:18.545Z,14.16
2024-03-05T18:26:22.341Z,13.85
2024-03-05T18:29:19.669Z,13.67
2024-03-05T18:32:26.189Z,13.67
2024-03-05T18:35:32.738Z,13.51
2024-03-05T18:38:39.615Z,13.69
2024-03-05T18:41:43.620Z,13.77
2024-03-05T18:44:42.323Z,13.39
2024-03-05T18:47:54.393Z,13.16
2024-03-05T18:51:07.379Z,12.82
2024-03-05T18:54:14.939Z,13.02
2024-03-05T18:57:20.214Z,13.44
2024-03-05T19:00:21.991Z,13.87
2024-03-05T19:03:26.553Z,14.33
2024-03-05T19:06:29.098Z,14.59
2024-03-05T19:09:30.645Z,14.09
2024-03-05T19:12:37.169Z,13.83
2024-03-05T19:15:37.697Z,13.16
2024-03-05T19:18:39.307Z,13.14
2024-03-05T19:21:37.794Z,13.66
2024-03-05T19:24:35.371Z,14
2024-03-05T19:27:41.904Z,14.2
2024-03-05T19:30:44.425Z,14.24
2024-03-05T19:33:46.481Z,14.35
2024-03-05T19:36:42.604Z,14.5
2024-03-05T19:39:45.088Z,14.61
2024-03-05T19:42:53.655Z,14.32
2024-03-05T19:45:58.944Z,14.17
2024-03-05T19:49:00.289Z,14.34
2024-03-05T19:52:02.494Z,14.39
2024-03-05T19:55:01.826Z,14.43
2024-03-05T19:58:08.583Z,14.41
2024-03-05T20:01:13.912Z,14.05
2024-03-05T20:04:16.429Z,14.02
2024-03-05T20:07:14.012Z,13.45
2024-03-05T20:10:10.523Z,12.64
2024-03-05T20:13:09.057Z,12.2
2024-03-05T20:16:15.164Z,11.79
2024-03-05T20:19:11.153Z,11.56
2024-03-05T20:22:15.889Z,11.55
2024-03-05T20:25:22.318Z,11.39
2024-03-05T20:28:18.794Z,11.59
2024-03-05T20:31:23.309Z,11.64
2024-03-05T20:34:21.922Z,11.56
2024-03-05T20:37:19.466Z,11.41
2024-03-05T20:40:17.036Z,11.12
2024-03-05T20:43:14.585Z,11.03
2024-03-05T20:46:34.094Z,11.16
2024-03-05T20:49:30.708Z,11.61
2024-03-05T20:52:27.260Z,12.12
2024-03-05T20:55:24.300Z,12.43
2024-03-05T20:58:31.297Z,12.96
2024-03-05T21:01:45.735Z,12.71
2024-03-05T21:04:53.377Z,12.58
2024-03-05T21:08:00.668Z,11.97
2024-03-05T21:11:04.238Z,11.97
2024-03-05T21:14:12.565Z,11.82
2024-03-05T21:17:12.518Z,12.14
2024-03-05T21:20:15.669Z,11.86
2024-03-05T21:23:18.666Z,11.92
2024-03-05T21:26:35.017Z,11.93
2024-03-05T21:29:33.631Z,11.71
2024-03-05T21:32:34.017Z,11.75
2024-03-05T21:35:32.817Z,11.69
2024-03-05T21:38:35.631Z,11.28
2024-03-05T21:41:30.789Z,11.32
2024-03-05T21:44:37.282Z,11.87
2024-03-05T21:47:43.902Z,12.47
2024-03-05T21:50:41.463Z,12.37
2024-03-05T21:53:38.632Z,12.36
2024-03-05T21:56:36.573Z,12.32
2024-03-05T21:59:35.110Z,12.05
2024-03-05T22:02:31.684Z,12.38
2024-03-05T22:05:29.247Z,12.29
2024-03-05T22:08:25.811Z,12.39
2024-03-05T22:11:22.454Z,12.14
2024-03-05T22:14:18.955Z,12.26
2024-03-05T22:17:15.482Z,11.86
2024-03-05T22:20:14.098Z,11.76
2024-03-05T22:23:13.610Z,11.27
2024-03-05T22:26:17.128Z,11.73
2024-03-05T22:29:14.690Z,12.11
2024-03-05T22:32:10.394Z,11.86
2024-03-05T22:35:11.106Z,11.76
2024-03-05T22:38:08.441Z,11.51
2024-03-05T22:41:06.031Z,11.72
2024-03-05T22:44:02.479Z,12.23
2024-03-05T22:47:00.012Z,12.25
2024-03-05T22:49:55.603Z,12.5
2024-03-05T22:52:53.251Z,12.58
2024-03-05T22:55:49.713Z,12.32
2024-03-05T22:58:46.326Z,12.38
2024-03-05T23:01:42.853Z,12.36
2024-03-05T23:04:39.427Z,12.24
2024-03-05T23:07:34.907Z,12.22
2024-03-05T23:10:31.564Z,11.97
2024-03-05T23:13:27.055Z,12.06
2024-03-05T23:16:22.608Z,11.98
2024-03-05T23:19:24.173Z,11.97
2024-03-05T23:22:20.726Z,11.89
2024-03-05T23:25:17.276Z,11.5
2024-03-05T23:28:14.854Z,11.71
2024-03-05T23:31:11.407Z,11.78
2024-03-05T23:34:07.928Z,12.12
2024-03-05T23:37:05.558Z,12.15
2024-03-05T23:40:01.097Z,11.95
2024-03-05T23:42:57.609Z,11.57
2024-03-05T23:45:55.195Z,11.97
2024-03-05T23:48:50.828Z,12.11
2024-03-05T23:51:46.317Z,12.19
2024-03-05T23:54:42.866Z,11.84
2024-03-05T23:57:38.430Z,12.07
